Saturday, February 24, 2018, 4:55 AM EST
Back to Local

KUKT, Quakertown, Quakertown Airport

Location: Quakertown, PA, United States Lat: 40.435
Local Time: 4:55 AM EST ( 9:55 GMT) Lon: -75.382
Time Zone: US/Eastern Elev: 524 ft

Show me the last for .
Show Decoded

2018-02-24 04:35 METAR KUKT 240935Z AUTO 00000KT 3SM BR BKN001 OVC020 06/06 A3016 RMK A01 =
2018-02-24 04:15 METAR KUKT 240915Z AUTO 00000KT 3/4SM BR OVC001 05/06 A3017 RMK A01 =
2018-02-24 03:55 METAR KUKT 240855Z AUTO 00000KT 3/4SM BR OVC001 05/06 A3017 RMK A01 =
2018-02-24 03:35 METAR KUKT 240835Z AUTO 27003KT 1SM BR OVC001 05/06 A3017 RMK A01 =
2018-02-24 03:15 METAR KUKT 240815Z AUTO 00000KT 1SM BR OVC001 05/06 A3016 RMK A01 =
2018-02-24 02:55 METAR KUKT 240755Z AUTO 00000KT 1 1/4SM BR OVC001 05/06 A3018 RMK A01 =
2018-02-24 02:35 METAR KUKT 240735Z AUTO 00000KT 1 3/4SM BR OVC001 05/06 A3018 RMK A01 =
2018-02-24 02:15 METAR KUKT 240715Z AUTO 00000KT 2SM BR OVC001 05/06 A3019 RMK A01 =
2018-02-24 01:55 METAR KUKT 240655Z AUTO 00000KT 2 1/2SM BR OVC001 05/05 A3020 RMK A01 =
2018-02-24 01:35 METAR KUKT 240635Z AUTO VRB04KT 2SM BR OVC001 05/05 A3020 RMK A01 =
2018-02-24 01:15 METAR KUKT 240615Z AUTO 23005KT 2 1/2SM BR OVC002 05/05 A3019 RMK A01 =
2018-02-24 00:55 METAR KUKT 240555Z AUTO 24005KT 3SM BR OVC002 05/05 A3020 RMK A01 =
2018-02-24 00:35 METAR KUKT 240535Z AUTO 25006KT 3SM BR OVC002 05/05 A3021 RMK A01 =
2018-02-24 00:15 METAR KUKT 240515Z AUTO 24005KT 4SM BR OVC002 05/05 A3020 RMK A01 =
2018-02-23 23:55 METAR KUKT 240455Z AUTO 24006KT 3SM BR OVC001 05/05 A3020 RMK A01 =
2018-02-23 23:35 METAR KUKT 240435Z AUTO 21005KT 1 1/4SM BR OVC001 05/05 A3020 RMK A01 =
2018-02-23 23:15 METAR KUKT 240415Z AUTO 22004KT 3/4SM BR OVC001 05/05 A3020 RMK A01 =
2018-02-23 22:55 METAR KUKT 240355Z AUTO 00000KT 1/2SM BR 05/05 A3021 RMK A01 =
2018-02-23 22:35 METAR KUKT 240335Z AUTO 21004KT 1/4SM FG OVC001 05/05 A3022 RMK A01 =
2018-02-23 22:15 METAR KUKT 240315Z AUTO 00000KT 1/4SM FG OVC001 05/05 A3024 RMK A01 =
2018-02-23 21:55 METAR KUKT 240255Z AUTO 00000KT 1/4SM FG OVC001 05/05 A3025 RMK A01 =
2018-02-23 21:35 METAR KUKT 240235Z AUTO 00000KT 1/4SM FG OVC001 05/05 A3026 RMK A01 =
2018-02-23 21:15 METAR KUKT 240215Z AUTO 00000KT 1/4SM FG OVC001 05/05 A3025 RMK A01 =
2018-02-23 20:55 METAR KUKT 240155Z AUTO 00000KT 1/4SM FG OVC001 05/05 A3026 RMK A01 =
2018-02-23 20:35 METAR KUKT 240135Z AUTO 00000KT 1/4SM FG OVC001 04/04 A3026 RMK A01 =
2018-02-23 20:15 METAR KUKT 240115Z AUTO 00000KT 1/4SM FG OVC001 04/04 A3028 RMK A01 =
2018-02-23 19:55 METAR KUKT 240055Z AUTO 00000KT 3/4SM BR OVC001 04/04 A3029 RMK A01 =
2018-02-23 19:35 METAR KUKT 240035Z AUTO 00000KT 1 1/4SM BR OVC001 04/04 A3029 RMK A01 =
2018-02-23 19:15 METAR KUKT 240015Z AUTO 00000KT 1 1/2SM BR OVC001 04/04 A3029 RMK A01 =
2018-02-23 18:55 METAR KUKT 232355Z AUTO 00000KT 2SM BR OVC002 04/04 A3031 RMK A01 =
2018-02-23 18:35 METAR KUKT 232335Z AUTO 00000KT 2SM BR OVC002 04/04 A3030 RMK A01 =
2018-02-23 18:15 METAR KUKT 232315Z AUTO 00000KT 2SM BR OVC002 04/04 A3031 RMK A01 =
2018-02-23 17:55 METAR KUKT 232255Z AUTO 00000KT 2SM BR OVC002 04/04 A3034 RMK A01 P0001 =
2018-02-23 17:35 METAR KUKT 232235Z AUTO 00000KT 1SM BR OVC002 04/04 A3034 RMK A01 =
2018-02-23 17:15 METAR KUKT 232215Z AUTO 00000KT 1 1/2SM BR OVC002 04/04 A3035 RMK A01 =
2018-02-23 16:55 METAR KUKT 232155Z AUTO 00000KT 2SM BR OVC002 04/04 A3037 RMK A01 =
2018-02-23 16:35 METAR KUKT 232135Z AUTO 00000KT 1 1/4SM BR OVC002 04/04 A3035 RMK A01 =
2018-02-23 16:15 METAR KUKT 232115Z AUTO 12004KT 1 1/4SM BR OVC002 04/04 A3036 RMK A01 =
2018-02-23 15:55 METAR KUKT 232055Z AUTO 10003KT 1 1/4SM BR OVC002 04/04 A3037 RMK A01 =
2018-02-23 15:35 METAR KUKT 232035Z AUTO 00000KT 1 1/4SM BR OVC003 04/04 A3040 RMK A01 =
2018-02-23 15:15 METAR KUKT 232015Z AUTO 00000KT 1 1/4SM BR OVC003 04/04 A3039 RMK A01 =
2018-02-23 14:55 METAR KUKT 231955Z AUTO 13006KT 2SM BR BKN003 OVC008 04/04 A3038 RMK A01 =
2018-02-23 14:35 METAR KUKT 231935Z AUTO 11005KT 2SM BR BKN003 OVC007 03/04 A3041 RMK A01 =
2018-02-23 14:15 METAR KUKT 231915Z AUTO 11007KT 1 1/2SM BR OVC004 03/03 A3039 RMK A01 =
2018-02-23 13:55 METAR KUKT 231855Z AUTO 10005KT 1 1/2SM BR OVC004 03/03 A3044 RMK A01 =
2018-02-23 13:35 METAR KUKT 231835Z AUTO VRB04KT 1 1/2SM BR OVC003 03/03 A3044 RMK A01 =
2018-02-23 13:15 METAR KUKT 231815Z AUTO 07004KT 1SM BR OVC003 03/03 A3046 RMK A01 =
2018-02-23 12:55 METAR KUKT 231755Z AUTO 09003KT 1 1/2SM BR OVC004 03/03 A3048 RMK A01 =
2018-02-23 12:35 METAR KUKT 231735Z AUTO 00000KT 6SM BR OVC006 03/03 A3050 RMK A01 =
2018-02-23 12:15 METAR KUKT 231715Z AUTO 09003KT 7SM OVC007 03/03 A3051 RMK A01 =
2018-02-23 11:55 METAR KUKT 231655Z AUTO 11009G14KT 4SM BR OVC006 03/03 A3050 RMK A01 =
2018-02-23 11:35 METAR KUKT 231635Z AUTO 12007KT 4SM BR OVC007 03/03 A3053 RMK A01 =
2018-02-23 11:15 METAR KUKT 231615Z AUTO 10005KT 4SM BR OVC006 03/02 A3055 RMK A01 =
2018-02-23 10:55 METAR KUKT 231555Z AUTO 11008KT 10SM OVC007 03/02 A3055 RMK A01 =
2018-02-23 10:35 METAR KUKT 231535Z AUTO 00000KT 10SM OVC007 02/02 A3057 RMK A01 =
2018-02-23 10:15 METAR KUKT 231515Z AUTO VRB03KT 4SM BR OVC007 02/02 A3058 RMK A01 =
2018-02-23 09:55 METAR KUKT 231455Z AUTO 09005KT 7SM OVC006 02/02 A3058 RMK A01 P0002 =
2018-02-23 09:35 METAR KUKT 231435Z AUTO 09005KT 4SM BR OVC006 02/02 A3058 RMK A01 =
2018-02-23 09:15 METAR KUKT 231415Z AUTO 08004KT 3SM BR OVC006 02/02 A3059 RMK A01 =
2018-02-23 08:55 METAR KUKT 231355Z AUTO 08006KT 4SM BR OVC008 02/02 A3058 RMK A01 P0001 =
2018-02-23 08:35 METAR KUKT 231335Z AUTO 08005KT 4SM BR OVC008 02/02 A3060 RMK A01 =
2018-02-23 08:15 METAR KUKT 231315Z AUTO VRB03KT 6SM BR BKN009 OVC012 02/02 A3060 RMK A01 =
2018-02-23 07:55 METAR KUKT 231255Z AUTO 00000KT 6SM BR OVC007 02/01 A3061 RMK A01 =
2018-02-23 07:35 METAR KUKT 231235Z AUTO 00000KT 10SM OVC007 02/02 A3061 RMK A01 =
2018-02-23 07:15 METAR KUKT 231215Z AUTO VRB04KT 10SM OVC006 02/02 A3060 RMK A01 =
2018-02-23 06:55 METAR KUKT 231155Z AUTO 11006KT 8SM OVC007 02/02 A3059 RMK A01 =
2018-02-23 06:35 METAR KUKT 231135Z AUTO 11005KT 6SM BR 02/02 A3058 RMK A01 =
2018-02-23 06:15 METAR KUKT 231115Z AUTO 09005KT 4SM BR OVC006 02/02 A3058 RMK A01 =
2018-02-23 05:55 METAR KUKT 231055Z AUTO 08006KT 9SM OVC007 02/02 A3059 RMK A01 =
2018-02-23 05:35 METAR KUKT 231035Z AUTO 06006KT 8SM OVC007 02/02 A3060 RMK A01 =
2018-02-23 05:15 METAR KUKT 231015Z AUTO 07005KT 7SM 02/02 A3060 RMK A01 =

Support USWX by starting your Amazon purchase here.